Time;durP1;ratioP1;P1;durP2;ratioP2;P2;SDS_P1;SDS_P2;PMS_P1;PMS_P2;Temp;Humidity;BMP_temperature;BMP_pressure;BME280_temperature;BME280_humidity;BME280_pressure;Samples;Min_cycle;Max_cycle;Signal;HPM_P1;HPM_P2
2024/04/08 00:02:03;;;;;;;9.27;5.22;;;;;;;17.43;79.13;100634.31;5116167;27;20513;-58
2024/04/08 00:04:30;;;;;;;10.80;4.95;;;;;;;17.33;79.40;100633.38;5116195;27;20150;-57
2024/04/08 00:06:57;;;;;;;9.68;5.00;;;;;;;17.23;80.43;100633.25;5116172;27;20048;-58
2024/04/08 00:09:24;;;;;;;8.32;4.65;;;;;;;17.06;82.34;100631.06;5116245;27;20425;-54
2024/04/08 00:11:50;;;;;;;8.30;4.60;;;;;;;16.92;83.72;100628.66;5116136;27;20075;-56
2024/04/08 00:14:18;;;;;;;8.52;4.85;;;;;;;16.98;83.64;100623.59;5115905;27;20054;-54
2024/04/08 00:16:45;;;;;;;8.55;4.60;;;;;;;16.88;84.75;100630.72;5115850;27;20092;-57
2024/04/08 00:19:13;;;;;;;13.55;5.45;;;;;;;16.84;85.55;100638.19;5116022;27;20047;-56
2024/04/08 00:21:39;;;;;;;9.40;4.97;;;;;;;16.95;84.95;100633.78;5116035;27;20488;-58
2024/04/08 00:24:06;;;;;;;11.20;5.10;;;;;;;16.76;86.28;100637.09;5115654;27;20143;-58
2024/04/08 00:26:33;;;;;;;9.35;5.28;;;;;;;16.92;85.68;100645.69;5114805;27;20047;-56
2024/04/08 00:29:00;;;;;;;10.75;4.97;;;;;;;16.86;85.35;100635.38;5115602;27;20096;-56
2024/04/08 00:31:27;;;;;;;8.05;5.18;;;;;;;16.79;86.25;100636.84;5116080;27;20043;-60
2024/04/08 00:33:55;;;;;;;8.23;4.88;;;;;;;16.98;84.88;100634.38;5115813;27;20094;-57
2024/04/08 00:36:21;;;;;;;9.45;5.07;;;;;;;16.92;85.10;100639.44;5115732;27;20043;-58
2024/04/08 00:38:49;;;;;;;11.48;4.47;;;;;;;16.98;85.26;100647.84;5115613;27;20073;-58
2024/04/08 00:41:15;;;;;;;9.65;4.72;;;;;;;16.87;85.02;100647.88;5115392;27;20470;-55
2024/04/08 00:43:42;;;;;;;11.93;5.07;;;;;;;16.66;86.35;100654.94;5115249;27;20135;-57
2024/04/08 00:46:19;;;;;;;11.32;4.85;;;;;;;16.69;87.02;100650.19;5115515;27;20039;-57
2024/04/08 00:48:48;;;;;;;9.07;5.40;;;;;;;16.65;87.17;100653.22;5115249;27;20086;-56
2024/04/08 00:51:16;;;;;;;9.65;5.03;;;;;;;16.55;88.85;100653.97;5115776;27;20043;-58
2024/04/08 00:53:43;;;;;;;10.55;5.68;;;;;;;16.67;88.22;100656.66;5116072;27;20398;-56
2024/04/08 00:56:10;;;;;;;8.50;5.20;;;;;;;16.81;86.89;100656.47;5115124;27;20047;-55
2024/04/08 00:58:38;;;;;;;11.88;5.60;;;;;;;16.83;86.27;100651.81;5115230;27;20047;-56
2024/04/08 01:01:05;;;;;;;8.32;5.20;;;;;;;16.76;86.82;100648.72;5115055;27;20503;-58
2024/04/08 01:03:33;;;;;;;10.38;5.10;;;;;;;16.69;87.77;100652.03;5114906;27;20050;-58
2024/04/08 01:05:59;;;;;;;8.38;4.63;;;;;;;16.68;87.76;100650.28;5114903;27;20043;-58
2024/04/08 01:08:28;;;;;;;8.63;4.82;;;;;;;16.65;87.36;100642.47;5114837;27;20420;-56
2024/04/08 01:10:55;;;;;;;11.77;5.32;;;;;;;16.67;86.06;100646.72;5114734;27;20039;-57
2024/04/08 01:13:22;;;;;;;10.20;5.22;;;;;;;16.73;86.55;100648.97;5115068;27;20400;-55
2024/04/08 01:15:49;;;;;;;8.63;5.10;;;;;;;16.60;86.20;100651.78;5114653;27;20131;-56
2024/04/08 01:18:16;;;;;;;9.18;4.95;;;;;;;16.64;85.67;100651.53;5114836;27;20074;-57
2024/04/08 01:20:42;;;;;;;10.50;4.78;;;;;;;16.42;88.39;100657.75;5114730;27;20043;-57
2024/04/08 01:23:14;;;;;;;8.50;4.75;;;;;;;16.47;87.30;100655.53;5114631;27;20052;-54
2024/04/08 01:25:41;;;;;;;8.32;5.32;;;;;;;16.36;88.00;100661.75;5114705;27;20148;-56
2024/04/08 01:28:09;;;;;;;8.93;4.95;;;;;;;16.23;88.73;100667.25;5114427;27;20051;-55
2024/04/08 01:30:36;;;;;;;8.93;5.22;;;;;;;16.29;88.57;100661.38;5114743;27;20461;-55
2024/04/08 01:33:03;;;;;;;11.93;5.20;;;;;;;16.15;89.79;100648.13;5114671;27;20083;-54
2024/04/08 01:35:29;;;;;;;8.00;5.15;;;;;;;16.19;89.16;100656.81;5114466;27;20151;-56
2024/04/08 01:37:57;;;;;;;8.98;4.78;;;;;;;16.16;89.66;100657.06;5114542;27;20043;-56
2024/04/08 01:40:23;;;;;;;6.50;5.07;;;;;;;16.06;91.58;100656.06;5114664;27;20507;-55
2024/04/08 01:42:52;;;;;;;8.25;5.00;;;;;;;16.16;90.29;100646.31;5118387;27;20043;-56
2024/04/08 01:45:22;;;;;;;8.70;5.10;;;;;;;16.15;90.88;100652.66;5119559;27;20047;-57
2024/04/08 01:47:50;;;;;;;9.48;5.57;;;;;;;16.25;90.05;100651.81;5118332;27;20138;-57
2024/04/08 01:50:16;;;;;;;10.25;5.78;;;;;;;16.28;90.05;100648.88;5116296;27;20116;-56
2024/04/08 01:52:43;;;;;;;10.93;6.05;;;;;;;16.16;90.65;100649.00;5115909;27;20456;-58
2024/04/08 01:55:09;;;;;;;7.70;5.28;;;;;;;16.07;91.15;100641.63;5119196;27;20044;-56
2024/04/08 01:57:37;;;;;;;10.85;5.20;;;;;;;15.81;92.27;100646.28;5116626;27;20054;-57
2024/04/08 02:00:07;;;;;;;8.98;4.75;;;;;;;15.79;91.95;100648.25;5114351;27;20047;-56
2024/04/08 02:02:34;;;;;;;8.68;4.53;;;;;;;15.72;92.48;100647.84;5114191;27;20054;-59
2024/04/08 02:05:01;;;;;;;8.68;4.85;;;;;;;15.63;93.10;100643.16;5113724;27;20047;-56
2024/04/08 02:07:28;;;;;;;9.48;5.00;;;;;;;15.66;93.15;100653.69;5113783;27;20047;-56
2024/04/08 02:09:55;;;;;;;7.43;5.20;;;;;;;15.64;93.62;100650.28;5113811;27;20051;-57
2024/04/08 02:12:22;;;;;;;9.10;5.35;;;;;;;15.65;93.18;100652.00;5113762;27;20166;-56
2024/04/08 02:14:48;;;;;;;6.93;4.90;;;;;;;15.59;93.80;100652.41;5096470;27;20559;-57
2024/04/08 02:17:17;;;;;;;8.60;5.03;;;;;;;15.61;93.46;100656.72;5113564;27;20403;-57
2024/04/08 02:19:43;;;;;;;7.65;4.80;;;;;;;15.71;93.08;100656.88;5113252;27;20043;-59
2024/04/08 02:22:11;;;;;;;8.32;5.40;;;;;;;15.65;93.04;100660.91;5113789;27;20054;-57
2024/04/08 02:24:38;;;;;;;7.00;4.85;;;;;;;15.45;94.46;100659.69;5113475;27;20051;-55
2024/04/08 02:27:05;;;;;;;9.88;5.20;;;;;;;15.70;93.06;100652.47;5113387;27;20423;-57
2024/04/08 02:31:03;;;;;;;8.27;5.30;;;;;;;15.74;92.04;100648.59;5574114;25;1210849;-58
2024/04/08 02:33:31;;;;;;;8.77;4.97;;;;;;;15.55;93.56;100648.25;5580232;25;20008;-58
2024/04/08 02:36:04;;;;;;;10.00;5.47;;;;;;;15.79;92.37;100649.09;5579904;25;20000;-57
2024/04/08 02:38:32;;;;;;;8.77;4.68;;;;;;;15.83;90.70;100639.84;5579643;25;20011;-56
2024/04/08 02:41:02;;;;;;;9.40;4.85;;;;;;;15.76;91.30;100640.41;5580148;25;20032;-54
2024/04/08 02:43:30;;;;;;;8.63;5.10;;;;;;;15.75;91.77;100639.56;5579713;25;20387;-58
2024/04/08 02:46:02;;;;;;;8.82;5.15;;;;;;;15.92;90.54;100639.16;5579470;25;20008;-56
2024/04/08 02:48:30;;;;;;;8.48;5.32;;;;;;;15.90;90.42;100645.59;5579968;25;20011;-56
2024/04/08 02:51:00;;;;;;;11.25;5.63;;;;;;;15.81;90.87;100638.22;5579505;25;20018;-59
2024/04/08 02:53:27;;;;;;;9.00;5.57;;;;;;;15.65;92.56;100635.84;5579476;25;19996;-58
2024/04/08 02:56:04;;;;;;;10.75;5.50;;;;;;;15.59;93.89;100630.88;5579441;25;20003;-57
2024/04/08 02:58:34;;;;;;;8.27;5.40;;;;;;;15.61;93.42;100639.72;5579493;25;20015;-55
2024/04/08 03:01:09;;;;;;;17.02;5.88;;;;;;;15.68;92.59;100649.06;5579514;25;20343;-56
2024/04/08 03:03:37;;;;;;;9.00;5.35;;;;;;;15.83;91.19;100645.22;5579005;25;20005;-59
2024/04/08 03:06:11;;;;;;;9.68;5.45;;;;;;;15.84;90.76;100640.69;5579060;25;19996;-57
2024/04/08 03:08:38;;;;;;;10.60;5.57;;;;;;;15.88;90.48;100648.41;5579048;25;20029;-58
2024/04/08 03:11:09;;;;;;;8.05;4.95;;;;;;;15.69;91.30;100643.56;5579234;25;20439;-56
2024/04/08 03:13:38;;;;;;;11.48;5.10;;;;;;;15.87;90.17;100649.38;5579084;25;19996;-56
2024/04/08 03:16:11;;;;;;;8.80;5.28;;;;;;;16.02;88.50;100640.16;5578965;25;19996;-56
2024/04/08 03:18:38;;;;;;;6.80;4.65;;;;;;;15.93;88.27;100648.94;5578974;25;19997;-58
2024/04/08 03:21:08;;;;;;;8.27;5.10;;;;;;;15.62;90.33;100644.13;5578892;25;19996;-58
2024/04/08 03:23:35;;;;;;;9.23;4.53;;;;;;;15.52;91.08;100643.06;5578890;25;19996;-56
2024/04/08 03:26:07;;;;;;;9.00;5.40;;;;;;;15.65;90.55;100641.22;5579020;25;20325;-57
2024/04/08 03:28:35;;;;;;;10.35;5.70;;;;;;;15.44;92.51;100646.31;5578853;25;19996;-58
2024/04/08 03:31:06;;;;;;;10.68;5.00;;;;;;;15.59;91.27;100645.19;5578574;25;20004;-58
2024/04/08 03:33:36;;;;;;;10.27;5.07;;;;;;;15.42;92.66;100643.75;5578617;25;20068;-58
2024/04/08 03:36:11;;;;;;;9.80;5.68;;;;;;;15.48;92.15;100644.28;5579026;25;20025;-59
2024/04/08 03:38:41;;;;;;;7.88;5.35;;;;;;;15.27;94.86;100652.97;5578788;25;20394;-57
2024/04/08 03:41:11;;;;;;;9.48;5.30;;;;;;;15.36;94.35;100651.44;5568308;25;20462;-56
2024/04/08 03:43:41;;;;;;;10.65;5.70;;;;;;;15.17;97.10;100641.16;5562160;25;20000;-57
2024/04/08 03:46:11;;;;;;;10.90;5.70;;;;;;;15.27;95.52;100647.59;5562354;25;19997;-57
2024/04/08 03:48:41;;;;;;;10.98;5.45;;;;;;;15.41;94.22;100643.88;5562667;25;20341;-56
2024/04/08 03:51:12;;;;;;;15.13;5.90;;;;;;;15.41;93.71;100642.03;5562306;25;20024;-58
2024/04/08 03:53:39;;;;;;;9.70;5.72;;;;;;;15.25;95.95;100646.84;5562645;25;20007;-56
2024/04/08 03:56:11;;;;;;;11.30;5.82;;;;;;;15.25;96.80;100638.78;5562510;25;19996;-59
2024/04/08 03:58:39;;;;;;;9.60;5.50;;;;;;;15.37;95.15;100637.03;5562430;25;20028;-58
2024/04/08 04:01:09;;;;;;;10.02;5.72;;;;;;;15.03;97.37;100644.00;5562164;25;20011;-55
2024/04/08 04:03:37;;;;;;;10.35;5.63;;;;;;;15.14;97.17;100631.47;5562245;25;19997;-57
2024/04/08 04:06:11;;;;;;;11.00;5.70;;;;;;;14.91;99.17;100639.50;5561947;25;20096;-55
2024/04/08 04:08:38;;;;;;;10.35;5.25;;;;;;;15.08;97.89;100639.16;5562040;25;20024;-54
2024/04/08 04:11:08;;;;;;;9.80;5.80;;;;;;;15.06;97.59;100644.66;5561883;25;20025;-57
2024/04/08 04:13:37;;;;;;;12.18;5.95;;;;;;;14.93;97.79;100640.25;5561975;25;20457;-58
2024/04/08 04:16:08;;;;;;;11.57;5.88;;;;;;;14.93;97.80;100643.78;5562084;25;20007;-58
2024/04/08 04:18:35;;;;;;;12.20;5.72;;;;;;;14.98;97.14;100630.91;5561992;25;20008;-55
2024/04/08 04:21:05;;;;;;;10.10;5.85;;;;;;;14.96;97.74;100631.97;5561874;25;20008;-56
2024/04/08 04:23:35;;;;;;;10.48;5.80;;;;;;;14.91;97.64;100629.63;5561849;25;20072;-56
2024/04/08 04:26:07;;;;;;;13.05;6.10;;;;;;;14.95;97.88;100630.25;5561881;25;19997;-56
2024/04/08 04:28:34;;;;;;;14.32;6.88;;;;;;;15.07;96.31;100627.56;5561790;25;20029;-58
2024/04/08 04:31:04;;;;;;;10.73;6.22;;;;;;;15.10;95.93;100631.84;5561584;25;20537;-56
2024/04/08 04:33:32;;;;;;;10.73;6.47;;;;;;;15.21;94.82;100620.28;5561947;25;19997;-58
2024/04/08 04:36:03;;;;;;;9.90;6.28;;;;;;;15.12;94.64;100616.44;5561835;25;20024;-56
2024/04/08 04:38:30;;;;;;;14.70;6.28;;;;;;;15.02;95.18;100610.91;5561965;25;20008;-56
2024/04/08 04:41:07;;;;;;;12.90;5.80;;;;;;;15.13;94.13;100607.41;5561308;25;20061;-56
2024/04/08 04:43:34;;;;;;;10.07;5.68;;;;;;;15.06;94.55;100611.56;5562553;25;20009;-59
2024/04/08 04:46:05;;;;;;;11.07;5.97;;;;;;;15.05;94.88;100617.88;5564649;25;19997;-58
2024/04/08 04:48:33;;;;;;;11.18;5.93;;;;;;;15.05;95.31;100616.03;5564724;25;20294;-58
2024/04/08 04:51:03;;;;;;;16.35;6.53;;;;;;;14.94;96.58;100615.09;5565409;25;19997;-59
2024/04/08 04:53:30;;;;;;;12.00;6.03;;;;;;;15.19;94.77;100617.72;5564863;25;20025;-56
2024/04/08 04:56:00;;;;;;;13.07;6.32;;;;;;;15.29;93.57;100617.91;5561707;25;20007;-60
2024/04/08 04:58:31;;;;;;;10.00;5.63;;;;;;;15.40;92.47;100609.91;5561622;25;20007;-57
2024/04/08 05:01:01;;;;;;;16.95;5.93;;;;;;;15.45;92.76;100608.59;5561401;25;19996;-61
2024/04/08 05:03:29;;;;;;;12.43;6.28;;;;;;;15.67;91.19;100609.69;5561396;25;19992;-56
2024/04/08 05:06:00;;;;;;;10.75;5.93;;;;;;;15.48;92.08;100614.72;5561032;25;20007;-58
2024/04/08 05:08:27;;;;;;;12.73;5.97;;;;;;;15.74;90.71;100614.50;5560982;25;19996;-58
2024/04/08 05:10:57;;;;;;;11.85;6.10;;;;;;;15.81;89.68;100614.88;5561014;25;19996;-59
2024/04/08 05:13:25;;;;;;;12.35;6.40;;;;;;;15.50;92.49;100620.81;5560806;25;20012;-57
2024/04/08 05:16:02;;;;;;;10.07;6.35;;;;;;;15.31;93.79;100624.88;5560595;25;20456;-55
2024/04/08 05:18:31;;;;;;;11.52;6.63;;;;;;;15.37;93.24;100621.75;5560351;25;20000;-58
2024/04/08 05:21:02;;;;;;;9.35;5.82;;;;;;;15.41;92.77;100623.22;5560616;25;20020;-58
2024/04/08 05:23:30;;;;;;;9.95;6.07;;;;;;;15.43;91.57;100626.66;5561109;25;19997;-59
2024/04/08 05:26:02;;;;;;;9.57;5.93;;;;;;;15.29;93.59;100621.44;5560997;25;20393;-56
2024/04/08 05:28:30;;;;;;;13.02;6.50;;;;;;;15.56;91.15;100625.75;5561004;25;19996;-58
2024/04/08 05:31:03;;;;;;;9.27;5.88;;;;;;;15.67;91.07;100631.22;5560946;25;20063;-57
2024/04/08 05:33:30;;;;;;;11.48;6.00;;;;;;;15.85;88.37;100627.13;5560586;25;20061;-58
2024/04/08 05:36:00;;;;;;;9.85;5.88;;;;;;;15.82;88.43;100632.72;5560033;25;20036;-53
2024/04/08 05:38:28;;;;;;;11.02;6.22;;;;;;;15.80;88.71;100632.00;5561037;25;20457;-58
2024/04/08 05:41:02;;;;;;;10.85;6.45;;;;;;;15.71;88.86;100630.00;5560944;25;20009;-59
2024/04/08 05:43:31;;;;;;;12.70;6.93;;;;;;;15.83;87.87;100628.22;5561728;25;20568;-59
2024/04/08 05:46:03;;;;;;;10.98;6.90;;;;;;;16.05;86.99;100627.44;5558549;25;20064;-59
2024/04/08 05:48:31;;;;;;;12.30;7.20;;;;;;;16.02;86.76;100637.47;5557874;25;19997;-59
2024/04/08 05:51:02;;;;;;;11.10;7.32;;;;;;;15.94;87.01;100634.50;5557660;25;20509;-59
2024/04/08 05:53:29;;;;;;;13.75;8.02;;;;;;;16.09;86.49;100626.22;5558220;25;19997;-58
2024/04/08 05:55:59;;;;;;;13.93;7.70;;;;;;;15.98;86.85;100637.81;5559253;25;19999;-59
2024/04/08 05:58:27;;;;;;;12.10;7.78;;;;;;;16.26;85.23;100631.16;5559939;25;20083;-60
2024/04/08 06:00:58;;;;;;;14.10;8.07;;;;;;;16.27;85.52;100636.41;5560230;25;20007;-59
2024/04/08 06:03:28;;;;;;;11.93;7.53;;;;;;;16.38;82.95;100638.25;5560184;25;20004;-56
2024/04/08 06:05:58;;;;;;;17.90;10.30;;;;;;;16.59;82.44;100644.66;5560881;25;20221;-58
2024/04/08 06:08:27;;;;;;;12.95;9.15;;;;;;;16.75;81.25;100643.47;5560583;25;20457;-59
2024/04/08 06:11:04;;;;;;;16.42;8.38;;;;;;;17.06;80.18;100641.84;5560383;25;20005;-59
2024/04/08 06:13:32;;;;;;;16.42;8.48;;;;;;;17.36;78.91;100642.03;5560668;25;20030;-58
2024/04/08 06:16:03;;;;;;;15.18;8.38;;;;;;;17.42;78.51;100641.56;5560181;25;20445;-58
2024/04/08 06:18:33;;;;;;;15.63;8.70;;;;;;;17.41;77.72;100636.28;5560039;25;20001;-58
2024/04/08 06:21:03;;;;;;;14.85;8.95;;;;;;;17.67;76.22;100637.69;5560047;25;19996;-58
2024/04/08 06:23:30;;;;;;;23.98;9.75;;;;;;;17.94;75.13;100639.06;5560009;25;19996;-59
2024/04/08 06:26:01;;;;;;;14.57;8.55;;;;;;;18.03;73.96;100636.41;5560015;25;19993;-60
2024/04/08 06:28:29;;;;;;;16.67;9.20;;;;;;;18.21;73.55;100641.25;5559755;25;20008;-61
2024/04/08 06:30:59;;;;;;;16.33;8.27;;;;;;;18.19;70.70;100643.22;5559819;25;20036;-59
2024/04/08 06:33:27;;;;;;;16.77;8.10;;;;;;;17.97;72.59;100633.41;5559596;25;19993;-59
2024/04/08 06:36:01;;;;;;;11.43;7.70;;;;;;;17.99;72.13;100636.84;5559832;25;20037;-60
2024/04/08 06:38:28;;;;;;;11.90;7.43;;;;;;;18.15;70.33;100637.25;5559814;25;20017;-59
2024/04/08 06:40:58;;;;;;;15.10;7.10;;;;;;;18.08;69.85;100638.75;5559675;25;20449;-58
2024/04/08 06:43:25;;;;;;;12.63;7.05;;;;;;;17.93;69.98;100637.34;5559554;25;20016;-60
2024/04/08 06:45:58;;;;;;;13.13;7.22;;;;;;;18.18;68.73;100636.97;5559163;25;20088;-59
2024/04/08 06:48:25;;;;;;;;;;;;;;;18.36;67.28;100644.47;5560088;25;20009;-58
2024/04/08 06:50:57;;;;;;;11.63;6.05;;;;;;;18.42;67.00;100646.63;5559114;25;19926;-59
2024/04/08 06:53:28;;;;;;;12.93;5.82;;;;;;;18.71;65.42;100650.38;5559272;25;20007;-59
2024/04/08 06:55:58;;;;;;;12.30;6.43;;;;;;;18.74;65.30;100655.53;5559278;25;20008;-60
2024/04/08 06:58:25;;;;;;;10.00;5.70;;;;;;;19.01;64.65;100651.34;5559157;25;20012;-61
2024/04/08 07:00:55;;;;;;;10.18;6.05;;;;;;;18.98;63.59;100651.63;5558956;25;19996;-60
2024/04/08 07:03:23;;;;;;;12.23;5.93;;;;;;;19.26;63.52;100645.47;5559037;25;20004;-57
2024/04/08 07:05:53;;;;;;;10.68;6.13;;;;;;;19.37;61.48;100648.06;5558839;25;20009;-60
2024/04/08 07:08:20;;;;;;;8.77;6.07;;;;;;;19.55;61.06;100647.38;5558852;25;20046;-59
2024/04/08 07:10:53;;;;;;;10.85;5.55;;;;;;;19.72;60.23;100642.16;5558679;25;20022;-58
2024/04/08 07:13:20;;;;;;;17.17;9.20;;;;;;;19.87;60.40;100642.56;5558989;25;19997;-60
2024/04/08 07:15:57;;;;;;;18.35;9.82;;;;;;;20.06;59.80;100635.44;5559838;25;20009;-57
2024/04/08 07:18:24;;;;;;;11.38;6.28;;;;;;;19.85;58.77;100641.88;5561843;25;20111;-57
2024/04/08 07:20:54;;;;;;;10.20;6.13;;;;;;;19.80;57.66;100638.75;5562511;25;20001;-58
2024/04/08 07:23:23;;;;;;;11.25;5.68;;;;;;;19.93;57.40;100644.72;5562471;25;20009;-58
2024/04/08 07:25:55;;;;;;;9.23;5.20;;;;;;;20.06;57.20;100641.72;5562720;25;20012;-60
2024/04/08 07:28:23;;;;;;;10.65;5.95;;;;;;;20.12;57.59;100648.41;5562505;25;20099;-59
2024/04/08 07:30:53;;;;;;;13.50;5.32;;;;;;;20.30;57.70;100650.25;5557399;25;20012;-57
2024/04/08 07:33:20;;;;;;;11.60;5.90;;;;;;;20.57;57.55;100652.22;5557970;25;20008;-57
2024/04/08 07:35:51;;;;;;;7.70;4.85;;;;;;;20.19;55.76;100644.16;5562336;25;20391;-58
2024/04/08 07:38:18;;;;;;;7.72;4.43;;;;;;;20.38;55.44;100649.53;5563168;25;20011;-59
2024/04/08 07:40:48;;;;;;;8.63;5.22;;;;;;;20.51;54.89;100654.66;5562875;25;20000;-59
2024/04/08 07:43:18;;;;;;;9.95;4.70;;;;;;;20.71;54.35;100647.31;5560965;25;20012;-58
2024/04/08 07:45:48;;;;;;;7.90;4.35;;;;;;;20.79;54.68;100652.84;5545649;25;20369;-59
2024/04/08 07:48:16;;;;;;;8.30;3.97;;;;;;;20.72;55.25;100654.44;5524616;26;19997;-60
2024/04/08 07:50:46;;;;;;;7.15;3.80;;;;;;;20.70;53.70;100657.31;5524293;26;19997;-61
2024/04/08 07:53:13;;;;;;;8.60;4.20;;;;;;;20.73;53.12;100650.72;5524546;26;20336;-59
2024/04/08 07:55:43;;;;;;;6.68;3.60;;;;;;;20.68;53.15;100653.91;5526106;26;19998;-60
2024/04/08 07:58:11;;;;;;;7.15;3.70;;;;;;;20.60;53.02;100656.50;5527392;26;20004;-59
2024/04/08 08:00:43;;;;;;;6.25;3.30;;;;;;;20.83;53.25;100656.97;5526990;26;19997;-59
2024/04/08 08:03:15;;;;;;;7.53;3.40;;;;;;;21.01;52.27;100657.91;5529623;26;20148;-58
2024/04/08 08:05:45;;;;;;;9.40;3.22;;;;;;;21.18;52.41;100658.13;5526093;26;20054;-59
2024/04/08 08:08:15;;;;;;;7.75;3.28;;;;;;;21.19;53.27;100651.69;5525052;26;19998;-58
2024/04/08 08:10:45;;;;;;;6.35;3.28;;;;;;;21.24;53.18;100655.66;5526254;26;19997;-59
2024/04/08 08:13:15;;;;;;;6.93;3.47;;;;;;;21.30;51.70;100648.78;5562389;25;19996;-57
2024/04/08 08:15:56;;;;;;;6.00;3.60;;;;;;;21.36;51.61;100645.47;5560535;25;20004;-58
2024/04/08 08:18:26;;;;;;;6.45;3.38;;;;;;;21.43;53.03;100646.59;5562140;25;20024;-59
2024/04/08 08:20:57;;;;;;;7.13;4.00;;;;;;;21.59;51.50;100648.59;5562244;25;19992;-59
2024/04/08 08:23:27;;;;;;;8.82;4.20;;;;;;;21.79;50.92;100641.16;5562434;25;20007;-56
2024/04/08 08:26:00;;;;;;;9.75;5.07;;;;;;;21.90;50.61;100643.63;5562160;25;20000;-59
2024/04/08 08:28:30;;;;;;;8.82;3.90;;;;;;;21.45;52.21;100641.84;5561942;25;20461;-58
2024/04/08 08:31:02;;;;;;;8.25;3.53;;;;;;;21.74;53.03;100638.06;5562017;25;20013;-59
2024/04/08 08:33:31;;;;;;;9.73;4.03;;;;;;;21.97;50.93;100644.72;5562118;25;20004;-60
2024/04/08 08:36:00;;;;;;;7.00;3.78;;;;;;;21.94;52.12;100651.34;5561726;25;20021;-58
2024/04/08 08:38:28;;;;;;;5.50;3.33;;;;;;;22.08;51.17;100639.06;5562246;25;19997;-60
2024/04/08 08:41:07;;;;;;;7.18;3.42;;;;;;;22.21;50.01;100636.81;5561951;25;20000;-59
2024/04/08 08:43:37;;;;;;;8.55;3.30;;;;;;;22.40;49.45;100637.66;5561673;25;20024;-59
2024/04/08 08:46:22;;;;;;;6.85;3.00;;;;;;;22.54;49.54;100637.03;5547686;25;20005;-59
2024/04/08 08:48:50;;;;;;;7.25;3.53;;;;;;;22.54;47.45;100637.91;5523880;26;20010;-60
2024/04/08 08:51:20;;;;;;;6.47;3.33;;;;;;;22.67;49.07;100631.16;5523847;26;19998;-59
2024/04/08 08:53:48;;;;;;;8.05;3.28;;;;;;;22.72;49.00;100634.28;5523736;26;20326;-59
2024/04/08 08:56:18;;;;;;;6.50;2.80;;;;;;;22.94;47.57;100635.59;5523746;26;20743;-59
2024/04/08 08:58:52;;;;;;;7.68;2.83;;;;;;;22.92;48.56;100629.47;5523633;26;20013;-59
2024/04/08 09:01:25;;;;;;;6.55;3.30;;;;;;;22.97;46.79;100629.81;5523861;26;20478;-59
2024/04/08 09:03:54;;;;;;;8.93;3.20;;;;;;;22.84;47.02;100628.41;5529276;25;20020;-58
2024/04/08 09:06:24;;;;;;;5.22;2.83;;;;;;;23.03;45.94;100632.75;5540374;25;19997;-57
2024/04/08 09:08:51;;;;;;;5.28;2.90;;;;;;;23.12;45.88;100623.59;5538975;25;20001;-61
2024/04/08 09:11:21;;;;;;;9.68;3.10;;;;;;;22.84;46.23;100614.81;5561147;25;20362;-60
2024/04/08 09:13:50;;;;;;;5.28;2.85;;;;;;;22.92;46.10;100618.59;5560730;25;20394;-60
2024/04/08 09:16:26;;;;;;;6.45;2.95;;;;;;;22.68;46.05;100613.84;5560849;25;19997;-58
2024/04/08 09:18:54;;;;;;;6.45;2.63;;;;;;;22.84;45.60;100609.38;5561075;25;19997;-59
2024/04/08 09:21:24;;;;;;;7.03;2.85;;;;;;;23.02;44.67;100608.44;5560829;25;20012;-59
2024/04/08 09:24:01;;;;;;;9.23;2.75;;;;;;;23.09;44.30;100609.50;5560803;25;19997;-58
2024/04/08 09:26:31;;;;;;;7.22;2.70;;;;;;;22.98;45.19;100607.91;5560536;25;19996;-60
2024/04/08 09:28:59;;;;;;;5.32;2.42;;;;;;;23.24;44.62;100602.38;5560732;25;19996;-59
2024/04/08 09:31:32;;;;;;;5.28;2.33;;;;;;;23.47;43.26;100596.31;5560306;25;20477;-59
2024/04/08 09:34:01;;;;;;;5.40;2.50;;;;;;;23.50;43.38;100598.72;5560892;25;20006;-59
2024/04/08 09:36:32;;;;;;;5.53;2.47;;;;;;;23.68;42.18;100594.84;5560645;25;20390;-58
2024/04/08 09:39:03;;;;;;;7.45;2.63;;;;;;;23.88;42.22;100589.94;5559495;25;20394;-60
2024/04/08 09:41:34;;;;;;;7.20;2.63;;;;;;;23.85;43.15;100589.44;5560571;25;19996;-60
2024/04/08 09:44:03;;;;;;;4.65;2.30;;;;;;;23.91;41.96;100584.13;5560573;25;20007;-60
2024/04/08 09:46:36;;;;;;;8.80;2.30;;;;;;;23.89;41.97;100580.72;5560147;25;20009;-58
2024/04/08 09:49:04;;;;;;;6.00;2.20;;;;;;;23.90;41.86;100576.13;5560678;25;19997;-59
2024/04/08 09:51:52;;;;;;;5.95;2.25;;;;;;;23.84;42.60;100571.38;5560526;25;20064;-58
2024/04/08 09:54:20;;;;;;;5.65;2.65;;;;;;;24.02;41.84;100568.47;5560314;25;20351;-58
2024/04/08 09:56:51;;;;;;;5.97;2.25;;;;;;;23.94;41.78;100577.50;5559815;25;19997;-59
2024/04/08 09:59:20;;;;;;;4.32;2.13;;;;;;;23.97;40.59;100571.72;5560200;25;19997;-58
2024/04/08 10:01:58;;;;;;;7.55;2.25;;;;;;;23.68;40.75;100562.19;5560119;25;19993;-58
2024/04/08 10:04:36;;;;;;;4.32;1.95;;;;;;;23.93;41.28;100568.50;5559890;25;20104;-57
2024/04/08 10:07:07;;;;;;;5.03;1.90;;;;;;;24.23;40.13;100561.47;5559816;25;20025;-58
2024/04/08 10:09:35;;;;;;;6.43;2.13;;;;;;;24.28;39.48;100564.50;5560142;25;20008;-59
2024/04/08 10:12:07;;;;;;;5.90;2.17;;;;;;;24.50;39.36;100551.19;5560003;25;20012;-59
2024/04/08 10:14:34;;;;;;;4.60;2.20;;;;;;;24.64;39.89;100541.44;5560151;25;20126;-59
2024/04/08 10:17:07;;;;;;;4.88;2.00;;;;;;;24.57;39.88;100540.44;5558733;25;20000;-57
2024/04/08 10:19:34;;;;;;;7.43;1.90;;;;;;;24.65;39.51;100537.69;5559713;25;20390;-60
2024/04/08 10:22:05;;;;;;;4.85;1.92;;;;;;;24.58;40.07;100532.06;5560115;25;20211;-57
2024/04/08 10:24:36;;;;;;;4.53;2.13;;;;;;;24.63;39.44;100534.28;5559725;25;19997;-57
2024/04/08 10:27:11;;;;;;;3.55;1.98;;;;;;;24.70;39.88;100527.94;5558571;25;20015;-59
2024/04/08 10:29:40;;;;;;;6.22;2.10;;;;;;;24.64;39.21;100525.94;5556962;25;19993;-59
2024/04/08 10:32:15;;;;;;;3.72;2.00;;;;;;;24.63;38.88;100523.38;5558492;25;20468;-57
2024/04/08 10:34:44;;;;;;;6.30;2.13;;;;;;;24.75;38.77;100516.50;5560028;25;20008;-58
2024/04/08 10:37:14;;;;;;;5.90;1.80;;;;;;;24.77;38.87;100508.97;5559582;25;20041;-61
2024/04/08 10:39:41;;;;;;;7.32;1.80;;;;;;;24.76;38.84;100515.47;5559618;25;20068;-59
2024/04/08 10:42:17;;;;;;;4.25;1.92;;;;;;;24.70;38.35;100511.56;5560155;25;20003;-56
2024/04/08 10:44:45;;;;;;;6.53;2.08;;;;;;;24.70;38.08;100507.97;5559927;25;20072;-59
2024/04/08 10:47:18;;;;;;;4.57;1.83;;;;;;;24.80;38.62;100508.63;5559675;25;20003;-59
2024/04/08 10:49:45;;;;;;;4.63;1.88;;;;;;;24.85;39.47;100511.69;5560613;25;20496;-58
2024/04/08 10:52:16;;;;;;;5.82;2.00;;;;;;;24.93;38.25;100503.44;5563888;25;19996;-59
2024/04/08 10:54:44;;;;;;;6.45;1.90;;;;;;;25.11;38.55;100501.34;5563119;25;20453;-57
2024/04/08 10:57:14;;;;;;;5.20;1.90;;;;;;;25.08;38.29;100498.09;5563453;25;19996;-60
2024/04/08 10:59:41;;;;;;;4.22;1.70;;;;;;;25.21;38.09;100500.25;5563385;25;19996;-60
2024/04/08 11:02:18;;;;;;;4.03;1.73;;;;;;;24.97;38.67;100499.31;5563561;25;20464;-59
2024/04/08 11:04:45;;;;;;;5.00;2.30;;;;;;;25.07;37.69;100489.06;5563255;25;20009;-60
2024/04/08 11:07:15;;;;;;;8.40;2.05;;;;;;;24.96;38.15;100492.16;5563338;25;19997;-59
2024/04/08 11:09:43;;;;;;;3.88;1.70;;;;;;;25.11;37.81;100484.94;5563437;25;19997;-59
2024/04/08 11:12:15;;;;;;;5.43;1.75;;;;;;;25.26;38.54;100479.53;5563353;25;19996;-59
2024/04/08 11:14:45;;;;;;;4.32;1.90;;;;;;;25.46;39.28;100471.72;5564545;25;20331;-61
2024/04/08 11:17:24;;;;;;;3.67;1.70;;;;;;;25.40;38.54;100473.31;5567574;25;20448;-60
2024/04/08 11:19:56;;;;;;;4.07;1.70;;;;;;;25.34;38.19;100476.75;5567778;25;20033;-59
2024/04/08 11:22:26;;;;;;;4.90;1.75;;;;;;;25.36;39.14;100460.19;5567450;25;19997;-62
2024/04/08 11:24:54;;;;;;;3.72;1.73;;;;;;;25.38;37.79;100463.56;5566461;25;19997;-61
2024/04/08 11:27:24;;;;;;;3.33;1.52;;;;;;;25.63;38.39;100462.34;5563548;25;20425;-61
2024/04/08 11:29:52;;;;;;;3.95;1.80;;;;;;;25.71;38.78;100469.66;5562984;25;20001;-60
2024/04/08 11:32:26;;;;;;;3.58;1.85;;;;;;;25.71;37.33;100466.06;5563053;25;19996;-61
2024/04/08 11:34:56;;;;;;;6.22;1.83;;;;;;;25.58;37.61;100451.13;5562905;25;20012;-59